Pagrindinis puslapis
METAR-TAF:

METAR-TAF

Oro uostai :

Kairas, Egiptas

platuma: 30-08N, ilguma: 031-24E, Aukštis: 64 m

Dabartinis oras

Ataskaita buvo paskelbta 49 minutes, ne 22:30 UTC
Vėjas 8 kt iš Rytų/Šiaurės Rytų
Temperatūra 26°C
Drėgmė 65%
Slėgis 1014 hPa
Matomumas 10 km arba daugiau
nėra debesų žemiau 1500 m ir nėra kamuolinių lietaus debesų

METAR: HECA 242230Z 06008KT CAVOK 26/19 Q1014 NOSIG

Laikas: 01:19 (23:19 UTC)

Prognozė

Ataskaita buvo paskelbta 6 valandos ir 19 minutes, ne 17:00 UTC
Prognozė galioja nuo 24 metu 18 UTC su 25 metu 24 UTC
Vėjas 13 kt iš Šiaurės Rytų
Matomumas 10 km arba daugiau
nėra debesų žemiau 1500 m ir nėra kamuolinių lietaus debesų

TAF: HECA 241700Z 2418/2524 05013KT CAVOK

Orai ataskaitas ir orų prognozės (METAR, TAF).

turimą stotys yra geltonos ir raudonos taškus žemėlapyje.

Perkelti pele per norėdami pamatyti stoties vardą.

Tada spustelėkite, norėdami matyti oro stebėjimo ir prognozės.

Norėdami pakeisti žemėlapį: spustelėkite ant žalios mygtukų su juodo kryžiaus žemyn,; žalią mygtuką su brūkšneliu, jei norite nutolinti; arba žalių rodyklių gretimoms žemėlapius.


METAR-TAF: